CheckWX is a tool to help pilots better visualize weather data.  It is not intended as a substitute for an official pre-flight weather briefing.

14:10:07 UTC

EKKA METAR
Karup Airport
Karup, Denmark
Current

20 mins ago

EKKA 201350Z AUTO 15012KT 110V170 9999 BKN078/// 24/15 Q1009
Observed
Jul-20 @ 13:50 UTC
Wind
  • 150° at 12 KTS
Visibility
10,000+ meters
Flight Rules
VFR
Cloud Levels
  • Broken at 7,800' AGL
Temperature
24°C / 75°F
Dewpoint
15°C / 59°F
Humidity
57%
Altimeter
29.79" Hg
Pressure
1008.92 hPa
Previous

50 mins ago

EKKA 201320Z AUTO 15010KT 110V180 9999 BKN066/// 24/15 Q1009
Observed
Jul-20 @ 13:20 UTC
Wind
  • 150° at 10 KTS
Visibility
10,000+ meters
Flight Rules
VFR
Cloud Levels
  • Broken at 6,600' AGL
Temperature
24°C / 75°F
Dewpoint
15°C / 59°F
Humidity
57%
Altimeter
29.79" Hg
Pressure
1008.92 hPa
Previous

1 hour ago

EKKA 201250Z AUTO 15009KT 120V190 9999 BKN070/// 24/15 Q1009
Observed
Jul-20 @ 12:50 UTC
Wind
  • 150° at 9 KTS
Visibility
10,000+ meters
Flight Rules
VFR
Cloud Levels
  • Broken at 7,000' AGL
Temperature
24°C / 75°F
Dewpoint
15°C / 59°F
Humidity
57%
Altimeter
29.79" Hg
Pressure
1008.92 hPa